createdAt,value
2019-02-20T00:01:12.491Z,8.13
2019-02-20T00:06:18.088Z,9.13
2019-02-20T00:11:24.125Z,8.50
2019-02-20T00:16:32.187Z,8.50
2019-02-20T00:21:39.529Z,10.03
2019-02-20T00:26:46.163Z,9.50
2019-02-20T00:31:54.121Z,8.93
2019-02-20T00:37:08.219Z,10.37
2019-02-20T00:42:14.039Z,10.40
2019-02-20T00:47:35.628Z,9.03
2019-02-20T00:52:51.851Z,9.87
2019-02-20T00:58:00.097Z,10.90
2019-02-20T01:03:06.364Z,9.13
2019-02-20T01:08:15.277Z,10.00
2019-02-20T01:13:20.930Z,10.00
2019-02-20T01:18:26.987Z,10.63
2019-02-20T01:23:36.778Z,10.20
2019-02-20T01:28:45.235Z,10.77
2019-02-20T01:33:51.972Z,10.20
2019-02-20T01:39:04.445Z,9.77
2019-02-20T01:44:13.554Z,10.47
2019-02-20T01:49:24.516Z,10.27
2019-02-20T01:54:38.809Z,9.10
2019-02-20T01:59:52.377Z,10.90
2019-02-20T02:04:57.783Z,10.70
2019-02-20T02:10:03.819Z,10.10
2019-02-20T02:15:20.019Z,10.70
2019-02-20T02:20:20.361Z,9.10
2019-02-20T02:25:26.367Z,10.10
2019-02-20T02:30:32.130Z,9.80
2019-02-20T02:35:37.725Z,10.20
2019-02-20T02:40:47.046Z,10.80
2019-02-20T02:45:59.402Z,10.27
2019-02-20T02:51:03.639Z,10.40
2019-02-20T02:56:09.373Z,10.83
2019-02-20T03:01:15.005Z,10.93
2019-02-20T03:06:22.950Z,9.93
2019-02-20T03:11:28.576Z,10.70
2019-02-20T03:16:39.848Z,9.97
2019-02-20T03:21:51.910Z,10.80
2019-02-20T03:26:58.023Z,10.33
2019-02-20T03:32:06.179Z,9.60
2019-02-20T03:37:13.569Z,9.60
2019-02-20T03:42:21.531Z,9.73
2019-02-20T03:47:32.221Z,9.93
2019-02-20T03:52:37.905Z,11.13
2019-02-20T03:57:46.681Z,9.73
2019-02-20T04:02:55.117Z,9.80
2019-02-20T04:08:05.496Z,9.60
2019-02-20T04:13:14.030Z,9.90
2019-02-20T04:18:20.318Z,9.83
2019-02-20T04:23:27.849Z,9.40
2019-02-20T04:28:36.525Z,10.23
2019-02-20T04:33:44.022Z,10.63
2019-02-20T04:38:51.594Z,10.80
2019-02-20T04:43:57.267Z,9.80
2019-02-20T04:49:05.672Z,10.77
2019-02-20T04:54:13.631Z,10.60
2019-02-20T04:59:18.612Z,9.87
2019-02-20T05:04:25.868Z,10.37
2019-02-20T05:09:31.826Z,11.37
2019-02-20T05:14:37.396Z,8.90
2019-02-20T05:19:43.060Z,11.47
2019-02-20T05:24:50.741Z,11.83
2019-02-20T05:29:56.375Z,10.03
2019-02-20T05:35:08.609Z,10.80
2019-02-20T05:40:14.342Z,12.00
2019-02-20T05:45:20.176Z,10.47
2019-02-20T05:50:25.839Z,10.73
2019-02-20T05:55:40.467Z,10.70
2019-02-20T06:00:46.047Z,11.30
2019-02-20T06:05:51.616Z,10.37
2019-02-20T06:10:58.437Z,10.77
2019-02-20T06:16:07.639Z,10.20
2019-02-20T06:21:16.382Z,10.10
2019-02-20T06:26:23.369Z,10.97
2019-02-20T06:31:30.320Z,10.07
2019-02-20T06:36:37.939Z,10.40
2019-02-20T06:41:47.707Z,10.23
2019-02-20T06:46:53.394Z,10.13
2019-02-20T06:51:59.482Z,10.17
2019-02-20T06:57:09.238Z,10.10
2019-02-20T07:02:15.107Z,9.30
2019-02-20T07:07:57.732Z,10.60
2019-02-20T07:13:37.704Z,9.90
2019-02-20T07:19:23.424Z,9.80
2019-02-20T07:25:03.943Z,9.60
2019-02-20T07:30:15.002Z,11.00
2019-02-20T07:35:21.967Z,10.27
2019-02-20T07:40:28.600Z,10.50
2019-02-20T07:45:36.240Z,9.40
2019-02-20T07:50:42.379Z,10.70
2019-02-20T07:55:49.299Z,10.10
2019-02-20T08:00:54.968Z,9.40
2019-02-20T08:06:01.029Z,10.63
2019-02-20T08:11:11.449Z,10.47
2019-02-20T08:16:20.689Z,10.70
2019-02-20T08:21:27.812Z,9.50
2019-02-20T08:26:35.959Z,9.87
2019-02-20T08:31:44.369Z,10.27
2019-02-20T08:36:59.742Z,9.30
2019-02-20T08:42:11.135Z,9.87
2019-02-20T08:47:16.752Z,10.20
2019-02-20T08:52:23.376Z,9.00
2019-02-20T08:57:29.043Z,9.27
2019-02-20T09:02:35.066Z,9.33
2019-02-20T09:07:40.794Z,9.20
2019-02-20T09:12:47.926Z,9.40
2019-02-20T09:17:55.426Z,10.70
2019-02-20T09:23:00.999Z,9.67
2019-02-20T09:28:07.447Z,9.93
2019-02-20T09:33:16.442Z,9.63
2019-02-20T09:38:22.022Z,10.53
2019-02-20T09:43:33.756Z,10.33
2019-02-20T09:48:39.400Z,11.50
2019-02-20T09:53:51.326Z,11.30
2019-02-20T09:58:58.941Z,11.20
2019-02-20T10:04:06.178Z,12.80
2019-02-20T10:09:14.241Z,10.73
2019-02-20T10:14:20.105Z,11.47
2019-02-20T10:19:25.818Z,11.80
2019-02-20T10:24:34.504Z,12.50
2019-02-20T10:29:41.765Z,10.77
2019-02-20T10:34:49.101Z,11.33
2019-02-20T10:39:57.042Z,11.13
2019-02-20T10:45:09.244Z,11.13
2019-02-20T10:50:18.719Z,12.43
2019-02-20T10:55:24.386Z,10.40
2019-02-20T11:00:31.931Z,11.57
2019-02-20T11:05:37.631Z,10.73
2019-02-20T11:10:44.454Z,10.30
2019-02-20T11:15:53.728Z,8.97
2019-02-20T11:21:01.174Z,9.30
2019-02-20T11:26:17.856Z,9.80
2019-02-20T11:31:25.047Z,10.53
2019-02-20T11:36:30.723Z,9.87
2019-02-20T11:41:36.428Z,10.70
2019-02-20T11:51:53.213Z,8.33
2019-02-20T11:56:58.958Z,7.87
2019-02-20T12:02:07.709Z,8.33
2019-02-20T12:07:17.666Z,8.30
2019-02-20T12:12:27.329Z,7.57
2019-02-20T12:17:38.622Z,7.20
2019-02-20T12:22:45.983Z,7.63
2019-02-20T12:27:51.598Z,5.60
2019-02-20T12:32:59.706Z,5.80
2019-02-20T12:38:08.766Z,5.83
2019-02-20T12:43:17.611Z,5.27
2019-02-20T12:48:23.434Z,4.97
2019-02-20T12:53:36.106Z,4.23
2019-02-20T12:58:51.224Z,4.67
2019-02-20T13:03:56.396Z,4.70
2019-02-20T13:14:10.585Z,5.97
2019-02-20T13:19:18.942Z,4.47
2019-02-20T13:24:24.856Z,5.03
2019-02-20T13:29:31.472Z,4.90
2019-02-20T13:34:37.677Z,5.70
2019-02-20T13:39:52.138Z,5.33
2019-02-20T13:44:57.660Z,4.90
2019-02-20T13:50:03.547Z,5.17
2019-02-20T13:55:14.239Z,5.10
2019-02-20T14:00:23.285Z,5.70
2019-02-20T14:05:29.117Z,6.10
2019-02-20T14:10:38.063Z,7.70
2019-02-20T14:15:45.597Z,6.20
2019-02-20T14:20:54.331Z,7.07
2019-02-20T14:26:00.069Z,5.57
2019-02-20T14:31:11.997Z,6.00
2019-02-20T14:36:19.851Z,5.90
2019-02-20T14:41:30.433Z,5.90
2019-02-20T14:46:37.019Z,5.27
2019-02-20T14:51:42.768Z,6.10
2019-02-20T14:56:50.769Z,6.20
2019-02-20T15:01:56.484Z,6.23
2019-02-20T15:07:09.653Z,6.03
2019-02-20T15:12:21.084Z,7.83
2019-02-20T15:17:32.788Z,5.37
2019-02-20T15:22:39.892Z,4.77
2019-02-20T15:27:48.932Z,4.90
2019-02-20T15:32:54.724Z,3.63
2019-02-20T15:38:02.929Z,4.03
2019-02-20T15:43:12.214Z,4.57
2019-02-20T15:48:23.634Z,3.97
2019-02-20T15:53:29.374Z,3.90
2019-02-20T15:58:35.579Z,4.20
2019-02-20T16:03:43.541Z,4.67
2019-02-20T16:08:52.459Z,4.53
2019-02-20T16:13:58.192Z,4.90
2019-02-20T16:19:11.337Z,4.93
2019-02-20T16:24:26.035Z,4.20
2019-02-20T16:29:31.760Z,5.40
2019-02-20T16:34:38.025Z,4.90
2019-02-20T16:39:52.902Z,5.10
2019-02-20T16:45:00.608Z,7.27
2019-02-20T16:50:07.032Z,9.80
2019-02-20T16:55:19.143Z,8.83
2019-02-20T17:00:29.883Z,6.93
2019-02-20T17:05:40.261Z,6.00
2019-02-20T17:10:46.019Z,9.23
2019-02-20T17:15:58.884Z,9.50
2019-02-20T17:21:05.245Z,7.30
2019-02-20T17:26:11.590Z,8.07
2019-02-20T17:31:23.903Z,6.07
2019-02-20T17:36:29.823Z,6.10
2019-02-20T17:41:41.140Z,5.90
2019-02-20T17:46:46.871Z,5.60
2019-02-20T17:51:54.250Z,6.13
2019-02-20T17:57:01.286Z,6.77
2019-02-20T18:02:10.186Z,6.70
2019-02-20T18:07:17.237Z,7.07
2019-02-20T18:12:25.323Z,7.90
2019-02-20T18:17:31.443Z,7.77
2019-02-20T18:22:47.734Z,7.47
2019-02-20T18:27:55.342Z,7.70
2019-02-20T18:33:04.782Z,7.50
2019-02-20T18:38:11.599Z,7.13
2019-02-20T18:43:21.068Z,6.97
2019-02-20T18:48:27.920Z,8.40
2019-02-20T18:53:38.320Z,7.60
2019-02-20T18:58:45.089Z,7.93
2019-02-20T19:03:56.714Z,9.80
2019-02-20T19:09:23.713Z,10.13
2019-02-20T19:14:47.423Z,10.20
2019-02-20T19:20:06.775Z,8.97
2019-02-20T19:25:48.416Z,15.67
2019-02-20T19:31:49.213Z,9.30
2019-02-20T19:37:38.052Z,8.70
2019-02-20T19:43:29.859Z,8.27
2019-02-20T19:49:18.306Z,8.63
2019-02-20T19:54:48.861Z,8.07
2019-02-20T20:00:49.478Z,8.97
2019-02-20T20:06:33.210Z,8.47
2019-02-20T20:12:22.222Z,8.53
2019-02-20T20:18:13.159Z,9.60
2019-02-20T20:24:11.041Z,9.50
2019-02-20T20:30:09.045Z,9.50
2019-02-20T20:36:03.205Z,10.00
2019-02-20T20:41:25.685Z,9.70
2019-02-20T20:47:09.447Z,10.50
2019-02-20T20:52:59.208Z,10.70
2019-02-20T20:58:39.990Z,9.63
2019-02-20T21:04:37.104Z,10.30
2019-02-20T21:10:10.187Z,9.00
2019-02-20T21:16:21.569Z,9.77
2019-02-20T21:22:05.121Z,9.87
2019-02-20T21:27:51.226Z,9.23
2019-02-20T21:33:52.928Z,9.57
2019-02-20T21:39:30.399Z,8.90
2019-02-20T21:45:35.260Z,9.70
2019-02-20T21:51:06.275Z,9.83
2019-02-20T21:56:52.608Z,8.90
2019-02-20T22:02:36.076Z,11.00
2019-02-20T22:08:20.701Z,9.87
2019-02-20T22:14:02.614Z,9.80
2019-02-20T22:19:31.988Z,10.00
2019-02-20T22:25:00.276Z,10.70
2019-02-20T22:30:50.725Z,10.90
2019-02-20T22:36:40.450Z,11.00
2019-02-20T22:42:14.860Z,10.87
2019-02-20T22:47:53.886Z,10.47
2019-02-20T22:53:45.994Z,11.57
2019-02-20T22:59:36.417Z,10.13
2019-02-20T23:05:21.449Z,11.40
2019-02-20T23:11:10.691Z,10.10
2019-02-20T23:16:16.680Z,11.90
2019-02-20T23:21:22.296Z,11.00
2019-02-20T23:26:33.293Z,11.07
2019-02-20T23:31:39.507Z,11.03
2019-02-20T23:36:45.570Z,11.97
2019-02-20T23:41:53.136Z,11.40
2019-02-20T23:52:56.019Z,11.60
2019-02-20T23:58:10.862Z,12.10
